Nearby METAR Reports

Meteorological Terminal Air Report (METAR)

K3I2 - Pt Pleasant, West Virginia, USA
Distance from station: S 11mi, 18km
Updated: Wed, 28-Dec-2022 4:30am EST
NOT Current
Clear
Clear
 Wind from calm
Wind: Calm
Temperature: 19°F , -7°C
Dew Point: 18°F , -8°C
Humidity: 93%
Barometer: 30.22 inHg , 1023.4 hPa
Clouds: Clear
Visibility: 10 miles , 16 km
2022/12/28 09:30 K3I2 280930Z AUTO 00000KT 10SM CLR M07/M08 A3022 RMK AO2 T10731085
KUNI - Athens, Ohio, USA
Distance from station: NW 13mi, 21km
Updated: Fri, 12-Apr-2024 11:15am EDT
Rain, Overcast
Rain, Overcast
 Wind from W
Wind: W 8 mph , 13 km/h
Temperature: 48°F , 9°C
Wind Chill: 44°F , 7°C
Dew Point: 45°F , 7°C
Humidity: 87%
Barometer: 29.65 inHg , 1004.1 hPa
Summary: Rain
Clouds: Overcast
Visibility: 4 miles , 6 km
Cloud details: Partly cloudy 1200 ft
Mostly cloudy 2200 ft
Overcast 3200 ft
2024/04/12 15:15 KUNI 121515Z AUTO 27007KT 4SM RA SCT012 BKN022 OVC032 09/07 A2965 RMK AO2 T00910073
 
KPKB - Parkersburg, West Virginia, USA
Distance from station: ENE 40mi, 65km
Updated: Fri, 12-Apr-2024 10:53am EDT
Overcast
Overcast
 Wind from WSW
Wind: WSW 12 mph , 19 km/h, Gust: 20 mph , 31 km/h
Temperature: 52°F , 11°C
Dew Point: 45°F , 7°C
Humidity: 77%
Barometer: 29.60 inHg , 1002.4 hPa
Clouds: Overcast
Visibility: 8 miles , 13 km
Cloud details: Mostly cloudy 2100 ft
Mostly cloudy 2600 ft
Overcast 3700 ft
2024/04/12 14:53 KPKB 121453Z 25010G17KT 210V280 8SM BKN021 BKN026 OVC037 11/07 A2960 RMK AO2 RAB16E37 SLP022 P0000 60000 T01060067 53016 $
KCRW - Charleston, West Virginia, USA
Distance from station: SSE 55mi, 88km
Updated: Fri, 12-Apr-2024 10:54am EDT
Light rain, Overcast
Light rain, Overcast
 Wind from WSW
Wind: WSW 13 mph , 20 km/h, Gust: 26 mph , 43 km/h
Temperature: 52°F , 11°C
Dew Point: 41°F , 5°C
Humidity: 67%
Barometer: 29.67 inHg , 1004.7 hPa
Summary: Light rain
Clouds: Overcast
Visibility: 9 miles , 14 km
Cloud details: Mostly cloudy 2800 ft
Overcast 6000 ft
2024/04/12 14:54 KCRW 121454Z 24011G23KT 200V290 9SM -RA BKN028 OVC060 11/05 A2967 RMK AO2 PK WND 24032/1408 RAB47 SLP045 P0000 60000 T01110050 53016 $
 
KHTS - Huntington, West Virginia, USA
Distance from station: SSW 55mi, 89km
Updated: Fri, 12-Apr-2024 11:17am EDT
Light rain, Overcast
Light rain, Overcast
 Wind from WSW
Wind: WSW 10 mph , 17 km/h, Gust: 23 mph , 37 km/h
Temperature: 52°F , 11°C
Dew Point: 45°F , 7°C
Humidity: 77%
Barometer: 29.71 inHg , 1006.1 hPa
Summary: Light rain
Clouds: Overcast
Visibility: 2 1/2 miles , 4 km
Cloud details: Few Clouds 2200 ft
Mostly cloudy 4000 ft
Overcast 4900 ft
2024/04/12 15:17 KHTS 121517Z 25009G20KT 2 1/2SM -RA FEW022 BKN040 OVC049 11/07 A2971 RMK AO2 P0003 T01060067
KLHQ - Lancaster, Ohio, USA
Distance from station: NW 56mi, 91km
Updated: Fri, 12-Apr-2024 11:27am EDT
Overcast
Overcast
 Wind from WSW
Wind: WSW 20 mph , 31 km/h, Gust: 25 mph , 41 km/h
Temperature: 52°F , 11°C
Dew Point: 46°F , 8°C
Humidity: 82%
Barometer: 29.62 inHg , 1003 hPa
Clouds: Overcast
Visibility: 10 miles , 16 km
Cloud details: Few Clouds 1600 ft
Mostly cloudy 2800 ft
Overcast 3300 ft
2024/04/12 15:27 KLHQ 121527Z AUTO 25017G22KT 10SM FEW016 BKN028 OVC033 11/08 A2962 RMK AO2 RAE03 P0000 T01060078
 
KZZV - Zanesville, Ohio, USA
Distance from station: N 61mi, 99km
Updated: Fri, 12-Apr-2024 10:53am EDT
Overcast
Overcast
 Wind from W
Wind: W 16 mph , 26 km/h, Gust: 26 mph , 43 km/h
Temperature: 52°F , 11°C
Dew Point: 43°F , 6°C
Humidity: 72%
Barometer: 29.56 inHg , 1001 hPa
Clouds: Overcast
Visibility: 10 miles , 16 km
Cloud details: Mostly cloudy 2700 ft
Overcast 3400 ft
2024/04/12 14:53 KZZV 121453Z AUTO 26014G23KT 10SM BKN027 OVC034 11/06 A2956 RMK AO2 PK WND 25030/1413 SLP007 T01110061 51016
KLCK - Rickenbacker Ang, Ohio, USA
Distance from station: NW 68mi, 110km
Updated: Fri, 12-Apr-2024 10:55am EDT
Overcast
Overcast
 Wind from W
Wind: W 18 mph , 30 km/h, Gust: 26 mph , 43 km/h
Temperature: 52°F , 11°C
Dew Point: 45°F , 7°C
Humidity: 77%
Barometer: 29.61 inHg , 1002.7 hPa
Clouds: Overcast
Visibility: 10 miles , 16 km
Cloud details: Overcast 1900 ft
2024/04/12 14:55 KLCK 121455Z AUTO 26016G23KT 10SM OVC019 11/07 A2961 RMK AO2 T01070073
 
KVTA - Newark, Ohio, USA
Distance from station: NNW 68mi, 110km
Updated: Wed, 03-Apr-2024 1:54pm EDT
NOT Current
Mostly cloudy
Mostly cloudy
 Wind from WSW
Wind: WSW 15 mph , 24 km/h, Gust: 23 mph , 37 km/h
Temperature: 48°F , 9°C
Wind Chill: 42°F , 6°C
Dew Point: 37°F , 3°C
Humidity: 66%
Barometer: 29.38 inHg , 994.9 hPa
Clouds: Mostly cloudy
Visibility: 10 miles , 16 km
Cloud details: Partly cloudy 3000 ft
Partly cloudy 3600 ft
Mostly cloudy 6000 ft
2024/04/03 17:54 KVTA 031754Z AUTO 24013G20KT 10SM SCT030 SCT036 BKN060 09/03 A2938 RMK AO2 PK WND 26033/1714 RAE31 SLP949 P0000 60000 T00940028 10100 20056 58009